createdAt,value
2018-09-27T00:03:33.444Z,1034.6
2018-09-27T00:08:33.468Z,1034.7
2018-09-27T00:13:33.394Z,1034.7
2018-09-27T00:18:33.420Z,1034.6
2018-09-27T00:23:33.602Z,1034.5
2018-09-27T00:28:33.324Z,1034.5
2018-09-27T00:33:45.925Z,1034.4
2018-09-27T00:38:45.656Z,1034.5
2018-09-27T00:43:45.811Z,1034.4
2018-09-27T00:48:45.672Z,1034.5
2018-09-27T00:53:45.663Z,1034.5
2018-09-27T00:58:45.797Z,1034.5
2018-09-27T01:03:45.833Z,1034.4
2018-09-27T01:08:49.365Z,1034.4
2018-09-27T01:13:49.293Z,1034.5
2018-09-27T01:19:02.702Z,1034.4
2018-09-27T01:24:02.652Z,1034.2
2018-09-27T01:29:02.468Z,1034.2
2018-09-27T01:34:02.645Z,1034.3
2018-09-27T01:39:02.520Z,1034.4
2018-09-27T01:44:02.479Z,1034.4
2018-09-27T01:49:02.584Z,1034.4
2018-09-27T01:54:05.431Z,1034.3
2018-09-27T01:59:02.574Z,1034.3
2018-09-27T02:04:02.614Z,1034.2
2018-09-27T02:09:02.681Z,1034.2
2018-09-27T02:14:02.600Z,1034.2
2018-09-27T02:19:02.457Z,1034.2
2018-09-27T02:24:02.645Z,1034.2
2018-09-27T02:29:14.446Z,1034.3
2018-09-27T02:34:14.191Z,1034.2
2018-09-27T02:39:14.182Z,1034.2
2018-09-27T02:44:14.361Z,1034.1
2018-09-27T02:49:14.179Z,1034
2018-09-27T02:54:14.317Z,1034
2018-09-27T02:59:14.364Z,1034
2018-09-27T03:04:14.207Z,1034
2018-09-27T03:09:14.369Z,1033.9
2018-09-27T03:14:26.243Z,1033.8
2018-09-27T03:19:26.081Z,1033.8
2018-09-27T03:24:25.977Z,1033.8
2018-09-27T03:29:25.986Z,1033.8
2018-09-27T03:34:26.320Z,1033.9
2018-09-27T03:39:25.973Z,1034
2018-09-27T03:44:26.098Z,1034
2018-09-27T03:49:26.211Z,1033.8
2018-09-27T03:54:25.986Z,1033.8
2018-09-27T03:59:26.190Z,1033.9
2018-09-27T04:04:26.163Z,1033.8
2018-09-27T04:09:26.194Z,1033.8
2018-09-27T04:14:26.570Z,1033.8
2018-09-27T04:19:26.293Z,1033.8
2018-09-27T04:24:41.133Z,1033.9
2018-09-27T04:29:40.876Z,1034
2018-09-27T04:34:40.860Z,1034
2018-09-27T04:39:41.233Z,1034
2018-09-27T04:44:40.855Z,1034.2
2018-09-27T04:49:40.884Z,1034.2
2018-09-27T04:54:41.216Z,1034.2
2018-09-27T04:59:43.173Z,1034.3
2018-09-27T05:04:42.904Z,1034.3
2018-09-27T05:09:55.117Z,1034.4
2018-09-27T05:14:54.858Z,1034.4
2018-09-27T05:19:54.775Z,1034.4
2018-09-27T05:24:55.019Z,1034.4
2018-09-27T05:29:54.951Z,1034.4
2018-09-27T05:34:54.742Z,1034.4
2018-09-27T05:39:55.026Z,1034.5
2018-09-27T05:44:54.853Z,1034.4
2018-09-27T05:49:55.120Z,1034.3
2018-09-27T05:54:54.821Z,1034.1
2018-09-27T05:59:54.845Z,1033.9
2018-09-27T06:04:54.988Z,1034
2018-09-27T06:09:57.684Z,1033.8
2018-09-27T06:14:56.383Z,1033.8
2018-09-27T06:20:08.256Z,1033.7
2018-09-27T06:25:08.119Z,1033.6
2018-09-27T06:30:22.695Z,1033.5
2018-09-27T06:35:13.287Z,1033.4
2018-09-27T06:40:12.935Z,1033.4
2018-09-27T06:45:12.872Z,1033.4
2018-09-27T06:50:12.668Z,1033.3
2018-09-27T06:55:13.515Z,1033.2
2018-09-27T07:00:12.683Z,1033.1
2018-09-27T07:05:25.296Z,1033.2
2018-09-27T07:10:25.125Z,1033.1
2018-09-27T07:15:25.314Z,1033
2018-09-27T07:20:25.479Z,1033
2018-09-27T07:25:25.232Z,1033
2018-09-27T07:30:25.054Z,1033
2018-09-27T07:35:25.144Z,1032.8
2018-09-27T07:40:25.023Z,1032.8
2018-09-27T07:45:24.953Z,1032.7
2018-09-27T07:50:25.364Z,1032.6
2018-09-27T07:55:25.231Z,1032.6
2018-09-27T08:00:25.159Z,1032.5
2018-09-27T08:05:25.532Z,1032.6
2018-09-27T08:10:25.330Z,1032.5
2018-09-27T08:15:37.957Z,1032.5
2018-09-27T08:20:38.524Z,1032.4
2018-09-27T08:25:37.715Z,1032.4
2018-09-27T08:30:38.078Z,1032.3
2018-09-27T08:35:37.784Z,1032.4
2018-09-27T08:40:37.840Z,1032.3
2018-09-27T08:45:38.460Z,1032.2
2018-09-27T08:50:40.759Z,1032.2
2018-09-27T08:55:40.968Z,1032
2018-09-27T09:00:52.910Z,1032
2018-09-27T09:05:52.790Z,1032
2018-09-27T09:10:52.530Z,1031.8
2018-09-27T09:15:55.470Z,1031.7
2018-09-27T09:20:52.772Z,1031.8
2018-09-27T09:25:52.834Z,1031.7
2018-09-27T09:30:52.613Z,1031.5
2018-09-27T09:35:53.057Z,1031.4
2018-09-27T09:40:52.487Z,1031.3
2018-09-27T09:45:52.585Z,1031.3
2018-09-27T09:50:52.825Z,1031.2
2018-09-27T09:55:52.778Z,1031.1
2018-09-27T10:00:52.816Z,1031
2018-09-27T10:05:52.887Z,1031
2018-09-27T10:11:05.678Z,1030.9
2018-09-27T10:16:05.388Z,1030.8
2018-09-27T10:21:05.555Z,1030.7
2018-09-27T10:26:05.540Z,1030.7
2018-09-27T10:31:05.618Z,1030.6
2018-09-27T10:36:05.340Z,1030.6
2018-09-27T10:41:05.465Z,1030.5
2018-09-27T10:46:05.788Z,1030.3
2018-09-27T10:51:05.699Z,1030.3
2018-09-27T10:56:18.221Z,1030.2
2018-09-27T11:01:17.949Z,1030
2018-09-27T11:06:18.105Z,1029.8
2018-09-27T11:11:18.466Z,1029.7
2018-09-27T11:16:17.930Z,1029.6
2018-09-27T11:21:17.926Z,1029.5
2018-09-27T11:26:18.010Z,1029.5
2018-09-27T11:31:18.060Z,1029.4
2018-09-27T11:36:18.480Z,1029.3
2018-09-27T11:41:17.942Z,1029.2
2018-09-27T11:46:18.177Z,1029.1
2018-09-27T11:51:18.086Z,1029
2018-09-27T11:56:18.543Z,1028.9
2018-09-27T12:01:18.251Z,1028.8
2018-09-27T12:06:31.338Z,1028.6
2018-09-27T12:11:30.948Z,1028.4
2018-09-27T12:16:31.086Z,1028.4
2018-09-27T12:21:30.897Z,1028.4
2018-09-27T12:26:32.793Z,1028.2
2018-09-27T12:31:32.684Z,1028.1
2018-09-27T12:36:33.034Z,1028.1
2018-09-27T12:41:33.747Z,1028
2018-09-27T12:46:34.026Z,1027.9
2018-09-27T12:51:46.781Z,1027.7
2018-09-27T12:56:45.968Z,1027.6
2018-09-27T13:01:46.284Z,1027.5
2018-09-27T13:06:46.043Z,1027.4
2018-09-27T13:11:45.838Z,1027.4
2018-09-27T13:16:45.841Z,1027.3
2018-09-27T13:21:46.413Z,1027.2
2018-09-27T13:26:46.274Z,1027.1
2018-09-27T13:31:46.015Z,1027
2018-09-27T13:36:46.039Z,1026.9
2018-09-27T13:41:45.996Z,1026.7
2018-09-27T13:46:46.009Z,1026.6
2018-09-27T13:51:46.507Z,1026.5
2018-09-27T13:56:46.466Z,1026.4
2018-09-27T14:01:59.415Z,1026.3
2018-09-27T14:06:59.153Z,1026.3
2018-09-27T14:11:59.417Z,1026.2
2018-09-27T14:16:59.314Z,1026.1
2018-09-27T14:21:59.184Z,1026
2018-09-27T14:26:59.148Z,1026
2018-09-27T14:31:59.165Z,1025.9
2018-09-27T14:36:59.138Z,1025.9
2018-09-27T14:41:59.425Z,1025.9
2018-09-27T14:47:11.020Z,1025.8
2018-09-27T14:52:10.663Z,1025.8
2018-09-27T14:57:10.669Z,1025.7
2018-09-27T15:02:11.226Z,1025.6
2018-09-27T15:07:10.777Z,1025.7
2018-09-27T15:12:11.151Z,1025.5
2018-09-27T15:17:12.321Z,1025.4
2018-09-27T15:22:10.834Z,1025.5
2018-09-27T15:27:11.007Z,1025.5
2018-09-27T15:32:10.773Z,1025.4
2018-09-27T15:37:11.067Z,1025.4
2018-09-27T15:42:10.695Z,1025.3
2018-09-27T15:47:13.472Z,1025.2
2018-09-27T15:52:13.250Z,1025.2
2018-09-27T15:57:25.614Z,1025.1
2018-09-27T16:02:25.330Z,1025
2018-09-27T16:07:25.301Z,1025
2018-09-27T16:12:25.329Z,1025
2018-09-27T16:17:25.486Z,1024.9
2018-09-27T16:22:25.338Z,1024.9
2018-09-27T16:27:29.369Z,1024.7
2018-09-27T16:32:29.046Z,1024.8
2018-09-27T16:37:29.088Z,1024.9
2018-09-27T16:42:36.682Z,1024.9
2018-09-27T16:47:36.608Z,1024.9
2018-09-27T16:52:36.383Z,1024.8
2018-09-27T16:57:36.416Z,1024.9
2018-09-27T17:02:36.698Z,1024.9
2018-09-27T17:07:36.642Z,1024.9
2018-09-27T17:12:36.832Z,1024.9
2018-09-27T17:17:36.931Z,1024.9
2018-09-27T17:22:37.179Z,1024.8
2018-09-27T17:27:36.820Z,1024.7
2018-09-27T17:32:36.842Z,1024.7
2018-09-27T17:37:37.766Z,1024.9
2018-09-27T17:42:37.843Z,1024.8
2018-09-27T17:47:37.603Z,1024.8
2018-09-27T17:52:50.525Z,1025
2018-09-27T17:57:50.066Z,1024.9
2018-09-27T18:02:50.092Z,1024.9
2018-09-27T18:07:50.124Z,1024.9
2018-09-27T18:12:50.335Z,1024.9
2018-09-27T18:17:50.242Z,1025
2018-09-27T18:22:50.217Z,1025.1
2018-09-27T18:27:50.826Z,1025.1
2018-09-27T18:32:50.740Z,1025.1
2018-09-27T18:38:04.670Z,1025.1
2018-09-27T18:43:05.186Z,1025.3
2018-09-27T18:48:03.649Z,1025.2
2018-09-27T18:53:04.294Z,1025.1
2018-09-27T18:58:03.715Z,1025.1
2018-09-27T19:03:06.843Z,1025
2018-09-27T19:08:06.606Z,1025
2018-09-27T19:13:06.621Z,1025
2018-09-27T19:18:06.708Z,1024.9
2018-09-27T19:23:07.758Z,1024.9
2018-09-27T19:28:06.612Z,1025
2018-09-27T19:33:06.641Z,1024.9
2018-09-27T19:38:08.250Z,1024.9
2018-09-27T19:43:07.966Z,1024.8
2018-09-27T19:48:20.186Z,1024.8
2018-09-27T19:53:19.830Z,1024.8
2018-09-27T19:58:20.125Z,1024.8
2018-09-27T20:03:20.080Z,1024.8
2018-09-27T20:08:29.497Z,1024.9
2018-09-27T20:13:21.982Z,1024.7
2018-09-27T20:18:21.933Z,1024.7
2018-09-27T20:23:22.540Z,1024.7
2018-09-27T20:28:22.237Z,1024.7
2018-09-27T20:33:21.931Z,1024.7
2018-09-27T20:38:21.930Z,1024.6
2018-09-27T20:43:21.798Z,1024.6
2018-09-27T20:48:23.049Z,1024.5
2018-09-27T20:53:21.785Z,1024.5
2018-09-27T20:58:34.679Z,1024.4
2018-09-27T21:03:34.422Z,1024.4
2018-09-27T21:08:34.576Z,1024.4
2018-09-27T21:13:34.631Z,1024.3
2018-09-27T21:18:34.418Z,1024.3
2018-09-27T21:23:34.419Z,1024.1
2018-09-27T21:28:34.660Z,1024.1
2018-09-27T21:33:36.675Z,1024.1
2018-09-27T21:38:36.511Z,1024.1
2018-09-27T21:43:50.530Z,1024.1
2018-09-27T21:48:50.441Z,1024.1
2018-09-27T21:53:50.377Z,1024.1
2018-09-27T21:58:50.614Z,1024
2018-09-27T22:03:50.624Z,1024
2018-09-27T22:08:50.557Z,1024
2018-09-27T22:13:53.413Z,1024
2018-09-27T22:18:51.228Z,1023.9
2018-09-27T22:23:51.081Z,1023.9
2018-09-27T22:29:04.559Z,1023.9
2018-09-27T22:34:04.256Z,1024
2018-09-27T22:39:04.294Z,1024
2018-09-27T22:44:04.126Z,1023.9
2018-09-27T22:49:04.245Z,1023.9
2018-09-27T22:54:04.307Z,1023.9
2018-09-27T22:59:04.072Z,1023.9
2018-09-27T23:04:04.366Z,1023.9
2018-09-27T23:09:04.283Z,1023.9
2018-09-27T23:14:04.334Z,1023.8
2018-09-27T23:19:04.128Z,1023.9
2018-09-27T23:24:04.273Z,1023.8
2018-09-27T23:29:05.206Z,1023.8
2018-09-27T23:34:04.782Z,1023.7
2018-09-27T23:39:17.468Z,1023.8
2018-09-27T23:44:17.331Z,1023.7
2018-09-27T23:49:17.193Z,1023.7
2018-09-27T23:54:17.422Z,1023.7
2018-09-27T23:59:17.188Z,1023.6
